x

Nanakwa Shoal (46181) Wave Buoy

6:00am - Sun 25th Jan 2015 All times are PST. -8 hours from GMT.

  • Sig Wave height 0.3ft
  • Peak Period 2s
  • Wind
    11mph, 13mph gusts
  • Sea Temp 42°f
  • Air Temp 47°f
  • Sea Pressure 1013.7mb
  • Nanakwa Shoal
  • Nanakwa Shoal

More Historic Weather Station data

Upgrade to MSW Pro to gain access to the past 30 days of data for over 8000 Wavebouys and Weather Stations around the globe.

Join Pro

Comparision Forecast

View Surf forecast
   
Sun 01/25 6:00am 0.3ft 2s 11 13 mph 1013.7mb 42f 47f
5:00am 0.3ft 2s 9 13 mph 1013.3mb 43f 48f
4:00am 0.3ft 2s 11
mph
1013mb 43f 47f
3:00am 0.7ft 3s 13 16 mph 1013mb 43f 48f
2:00am 0.7ft 3s 13
mph
1012.2mb 43f 48f
1:00am 0.7ft 3s 16 18 mph 1011.1mb 43f 47f
12:00am 1ft 3s 18 22 mph 1009.9mb 43f 47f
Sat 01/24 11:00pm 1ft 3s 18 22 mph 1008.5mb 42f 48f
10:00pm 1.3ft 3s 20 27 mph 1006.8mb 42f 49f
9:00pm 1.3ft 5s 22 31 mph 1004.6mb 42f 51f
8:00pm 0.7ft 3s 18 25 mph 1003.8mb 41f 51f
7:00pm 0.3ft 8s 2 9 mph 1003.1mb 41f 44f
6:00pm 0.3ft 8s 2 4 mph 1002.7mb 40f 41f
5:00pm 0.3ft 8s 2 4 mph 1003.2mb 40f 40f
4:00pm 0.3ft 8s 2 4 mph 1003.9mb 40f 41f
3:00pm 0.3ft 8s 2 4 mph 1005.7mb 40f 41f
2:00pm 0.3ft 8s 2 4 mph 1007.7mb 40f 41f
1:00pm 0.3ft 2s 4 7 mph 1008.5mb 41f 42f
12:00pm 0.3ft 2s 11 13 mph 1010.9mb 42f 42f
11:00am 0.3ft 8s 9 13 mph 1012.4mb 42f 42f
10:00am 0.3ft 8s 11 13 mph 1014.8mb 42f 42f
9:00am 0.3ft 7s 9 13 mph 1016.7mb 42f 42f
8:00am 0.3ft 8s 2 4 mph 1018mb 42f 42f
7:00am 0.3ft 8s 4 7 mph 1018.6mb 41f 43f
6:00am 0.3ft 8s 2
mph
1020mb 41f 43f
5:00am 0.3ft 7s 2 4 mph 1020.4mb 41f 43f
4:00am 0.3ft 7s 4
mph
1020.9mb 42f 42f
3:00am 0.3ft 2s 4 7 mph 1021.1mb 43f 42f
2:00am 0.3ft 2s 7 9 mph 1021.1mb 43f 45f
1:00am 0.3ft 2s 9 13 mph 1020.6mb 43f 45f
12:00am 0.3ft 3s 13
mph
1019.6mb 42f 47f
Fri 01/23 11:00pm 0.3ft 2s 13
mph
1019.5mb 42f 47f
10:00pm 0.3ft 2s 11 13 mph 1018.7mb 42f 47f
9:00pm 0.3ft 2s 13 16 mph 1017.5mb 42f 48f
8:00pm 0.3ft 2s 13 16 mph 1015.9mb 42f 47f
7:00pm 0.7ft 2s 13 16 mph 1014.5mb 42f 49f
6:00pm 0.7ft 3s 9 16 mph 1013.3mb 42f 50f
5:00pm 1ft 2s 11 16 mph 1012.3mb 42f 50f
4:00pm 0.7ft 3s 16 20 mph 1011.1mb 42f 50f
3:00pm 0.3ft 3s 11 16 mph 1010.1mb 41f 49f
2:00pm 0.3ft 3s 2
mph
1009mb 41f 43f
1:00pm 0.3ft 8s 2 4 mph 1008.6mb 42f 43f
12:00pm 0.3ft 8s 2 4 mph 1008.3mb 42f 44f
11:00am 0.3ft 8s 4 7 mph 1009.1mb 42f 42f
10:00am 0.3ft 8s 2
mph
1008.5mb 41f 43f
9:00am 0.3ft 8s 4
mph
1009mb 42f 44f
8:00am 0.3ft 8s 4
mph
1009mb 41f 43f
7:00am 0.3ft 8s 7 11 mph 1010.3mb 41f 42f
6:00am 0.3ft 8s 2 4 mph 1011.5mb 41f 42f
5:00am 0.3ft 8s 2 7 mph 1013.2mb 40f 41f
4:00am 0.3ft 8s 4 7 mph 1013.4mb 40f 42f
3:00am 0.3ft 3s 2 7 mph 1015.9mb 41f 43f
2:00am 0.3ft 8s 2 4 mph 1016.3mb 42f 43f
1:00am 0.3ft 8s 2 4 mph 1016.1mb 42f 42f
12:00am 0.3ft 8s 2 4 mph 1016.4mb 42f 43f
Thu 01/22 11:00pm  -  8s 2
mph
1016.4mb 42f 42f
10:00pm 0.3ft 8s  -  4 mph 1015.6mb 42f 42f
9:00pm  -  8s 4 7 mph 1014.1mb 42f 41f
8:00pm 0.3ft 8s 7
mph
1013.1mb 41f 43f
7:00pm 0.3ft 8s 2 4 mph 1011.8mb 41f 42f
6:00pm 0.3ft 8s 2
mph
1011.3mb 41f 42f
5:00pm 0.3ft 8s 2 4 mph 1011mb 42f 43f
4:00pm 0.3ft 8s 7 9 mph 1011.1mb 42f 44f
3:00pm 0.3ft 8s 2 4 mph 1012.5mb 42f 42f
2:00pm 0.3ft 8s 2
mph
1013.8mb 43f 43f
1:00pm 0.3ft 8s  -  mph 1014mb 43f 43f
12:00pm 0.3ft 8s 4 9 mph 1014.9mb 43f 43f
11:00am 0.3ft 8s 7 9 mph 1015.9mb 42f 42f
10:00am 0.3ft 8s 4
mph
1016mb 42f 42f
9:00am 0.3ft 3s 2 4 mph 1015.9mb 42f 44f
8:00am 0.3ft 3s 4 7 mph 1015.7mb 42f 45f
7:00am 0.7ft 3s 4 9 mph 1015.5mb 42f 45f
6:00am 0.7ft 4s 11 13 mph 1015.6mb 41f 46f
5:00am 0.7ft 4s 13 18 mph 1015.1mb 41f 47f
4:00am 0.3ft 4s 11 16 mph 1014.6mb 41f 46f
3:00am 0.3ft 8s 2 4 mph 1014.4mb 41f 41f
2:00am 0.3ft 4s  -  2 mph 1013.5mb 40f 40f
1:00am 0.3ft 8s  -  2 mph 1013mb 41f 40f
12:00am 0.3ft 8s  -  2 mph 1012.7mb 42f 40f
Wed 01/21 11:00pm 0.3ft 8s 4
mph
1012.1mb 42f 40f
10:00pm 0.3ft 8s 2
mph
1011.7mb 43f 40f
9:00pm 0.3ft 2s 4 9 mph 1011.4mb 43f 40f
8:00pm 0.3ft 2s 2 4 mph 1011mb 43f 41f
7:00pm 0.3ft 3s 2 4 mph 1010.1mb 43f 40f
6:00pm 0.3ft 2s 4 7 mph 1009.6mb 43f 40f
5:00pm 0.3ft 2s 4 7 mph 1009.5mb 43f 40f
4:00pm 0.3ft 2s 7 11 mph 1009.2mb 43f 41f